Time;durP1;ratioP1;P1;durP2;ratioP2;P2;SDS_P1;SDS_P2;PMS_P1;PMS_P2;Temp;Humidity;BMP_temperature;BMP_pressure;BME280_temperature;BME280_humidity;BME280_pressure;Samples;Min_cycle;Max_cycle;Signal;HPM_P1;HPM_P2
2022/08/28 00:01:44;;;;;;;11.40;7.40;;;18.80;99.90;;;19.80;100.00;98147.97;5081360;28;20471;-83
2022/08/28 00:04:12;;;;;;;11.20;5.90;;;19.00;99.90;;;19.81;100.00;98150.38;5082544;28;20460;-83
2022/08/28 00:06:41;;;;;;;12.73;5.77;;;19.00;99.90;;;19.82;100.00;98148.53;5082683;28;20866;-83
2022/08/28 00:09:09;;;;;;;13.23;6.47;;;19.00;99.90;;;19.82;100.00;98149.31;5083520;28;20475;-83
2022/08/28 00:11:39;;;;;;;12.80;4.90;;;19.00;99.90;;;19.83;100.00;98150.13;5082062;28;20469;-83
2022/08/28 00:14:10;;;;;;;8.17;5.20;;;19.00;99.90;;;19.84;100.00;98151.75;5081473;28;20489;-83
2022/08/28 00:16:40;;;;;;;11.63;4.70;;;18.90;99.90;;;19.79;100.00;98156.97;5081494;28;20568;-83
2022/08/28 00:19:10;;;;;;;10.33;5.77;;;19.00;99.90;;;19.81;100.00;98149.56;5083081;28;20532;-83
2022/08/28 00:21:38;;;;;;;11.07;5.27;;;18.90;99.90;;;19.82;100.00;98156.50;5083160;28;20636;-83
2022/08/28 00:24:07;;;;;;;10.03;5.57;;;18.90;99.90;;;19.84;100.00;98149.09;5082818;28;20552;-83
2022/08/28 00:29:22;;;;;;;15.87;6.07;;;19.00;99.90;;;19.84;100.00;98162.34;5083855;28;20978;-83
2022/08/28 00:31:52;;;;;;;10.83;6.30;;;18.90;99.90;;;19.83;100.00;98161.53;5082872;28;20491;-83
2022/08/28 00:34:21;;;;;;;23.73;6.40;;;19.00;99.90;;;19.83;100.00;98164.19;5082188;28;20479;-83
2022/08/28 00:37:01;;;;;;;10.93;5.43;;;19.00;99.90;;;19.82;100.00;98159.16;5080040;28;20470;-83
2022/08/28 00:39:31;;;;;;;6.50;4.10;;;19.00;99.90;;;19.83;100.00;98160.75;5081245;28;20464;-83
2022/08/28 00:41:59;;;;;;;12.27;4.80;;;19.00;99.90;;;19.83;100.00;98160.75;5082229;28;20471;-83
2022/08/28 00:44:29;;;;;;;6.37;4.70;;;18.90;99.90;;;19.82;100.00;98157.28;5078085;28;20463;-83
2022/08/28 00:47:00;;;;;;;17.13;4.57;;;19.00;99.90;;;19.82;100.00;98161.81;5082727;28;20587;-84
2022/08/28 00:49:34;;;;;;;9.23;4.80;;;19.00;99.90;;;19.83;100.00;98155.44;5082376;28;20946;-83
2022/08/28 00:52:07;;;;;;;8.97;4.90;;;19.00;99.90;;;19.83;100.00;98158.09;5079856;28;20474;-83
2022/08/28 00:54:44;;;;;;;7.10;4.70;;;19.00;99.90;;;19.80;100.00;98156.72;5082085;28;20463;-83
2022/08/28 00:57:32;;;;;;;7.07;4.63;;;18.90;99.90;;;19.81;100.00;98157.53;5080850;28;20494;-83
2022/08/28 01:00:02;;;;;;;7.57;5.10;;;18.90;99.90;;;19.78;100.00;98160.69;5081997;28;20472;-83
2022/08/28 01:02:32;;;;;;;12.00;4.67;;;18.90;99.90;;;19.78;100.00;98158.84;5084800;28;20543;-84
2022/08/28 01:05:01;;;;;;;9.57;4.77;;;18.90;99.90;;;19.78;100.00;98152.72;5084338;28;20460;-83
2022/08/28 01:07:30;;;;;;;8.43;4.60;;;18.90;99.90;;;19.77;100.00;98151.09;5086566;28;20864;-83
2022/08/28 01:09:59;;;;;;;10.50;5.03;;;18.90;99.90;;;19.78;100.00;98150.88;5083614;28;20853;-83
2022/08/28 01:12:32;;;;;;;14.33;5.30;;;19.00;99.90;;;19.75;100.00;98158.50;5085579;28;21137;-83
2022/08/28 01:15:11;;;;;;;7.10;4.90;;;18.90;99.90;;;19.74;100.00;98162.22;5083295;28;20467;-83
2022/08/28 01:17:50;;;;;;;9.13;4.63;;;18.90;99.90;;;19.69;100.00;98160.28;5086647;28;20447;-83
2022/08/28 01:20:23;;;;;;;6.37;4.10;;;18.90;99.90;;;19.72;100.00;98158.97;5083132;28;20451;-83
2022/08/28 01:23:04;;;;;;;6.67;5.13;;;18.90;99.90;;;19.71;100.00;98160.84;5084786;28;20516;-83
2022/08/28 01:25:37;;;;;;;10.00;5.40;;;18.90;99.90;;;19.71;100.00;98158.19;5085519;28;20475;-83
2022/08/28 01:28:11;;;;;;;6.90;4.20;;;18.90;99.90;;;19.74;100.00;98162.22;5084839;28;20491;-83
2022/08/28 01:30:48;;;;;;;11.80;5.30;;;18.80;99.90;;;19.72;100.00;98164.28;5086043;28;21160;-83
2022/08/28 01:33:18;;;;;;;5.63;4.17;;;18.80;99.90;;;19.73;100.00;98171.22;5086758;28;20885;-83
2022/08/28 01:35:56;;;;;;;15.40;4.40;;;18.80;99.90;;;19.72;100.00;98169.59;5087463;28;20459;-83
2022/08/28 01:38:26;;;;;;;6.90;4.43;;;18.80;99.90;;;19.74;100.00;98164.84;5068501;28;20545;-83
2022/08/28 01:40:57;;;;;;;11.70;4.10;;;18.80;99.90;;;19.73;100.00;98160.59;5085994;28;20957;-83
2022/08/28 01:43:27;;;;;;;10.83;4.60;;;18.90;99.90;;;19.70;100.00;98158.44;5086345;28;20466;-83
2022/08/28 01:46:04;;;;;;;6.97;4.73;;;18.80;99.90;;;19.69;100.00;98164.78;5088377;28;20448;-83
2022/08/28 01:48:37;;;;;;;12.87;4.90;;;18.80;99.90;;;19.65;100.00;98160.97;5087030;28;20527;-83
2022/08/28 01:51:07;;;;;;;10.10;4.80;;;18.80;99.90;;;19.64;100.00;98159.41;5088035;28;21006;-83
2022/08/28 01:53:36;;;;;;;5.60;3.87;;;18.90;99.90;;;19.64;100.00;98157.56;5087613;28;21018;-83
2022/08/28 01:56:12;;;;;;;7.07;4.50;;;18.90;99.90;;;19.66;100.00;98159.94;5086638;28;20496;-84
2022/08/28 01:58:42;;;;;;;6.90;3.97;;;18.90;99.90;;;19.67;100.00;98156.25;5087056;28;20474;-83
2022/08/28 02:01:12;;;;;;;10.20;4.60;;;18.90;99.90;;;19.65;100.00;98153.84;5087003;28;20489;-84
2022/08/28 02:03:42;;;;;;;7.13;4.20;;;18.90;99.90;;;19.63;100.00;98155.13;5085132;28;20564;-83
2022/08/28 02:06:14;;;;;;;7.37;4.20;;;18.80;99.90;;;19.61;100.00;98157.22;5061946;28;20466;-83
2022/08/28 02:08:44;;;;;;;7.90;4.40;;;18.80;99.90;;;19.52;100.00;98157.63;5084979;28;21051;-83
2022/08/28 02:11:14;;;;;;;9.10;4.87;;;18.70;99.90;;;19.52;100.00;98159.47;5084398;28;20467;-84
2022/08/28 02:13:43;;;;;;;5.70;4.30;;;18.70;99.90;;;19.53;100.00;98161.09;5084915;28;20894;-83
2022/08/28 02:16:19;;;;;;;8.70;4.80;;;18.80;99.90;;;19.52;100.00;98156.81;5085805;28;20459;-83
2022/08/28 02:18:48;;;;;;;7.70;4.00;;;18.80;99.90;;;19.50;100.00;98157.06;5085912;28;20459;-83
2022/08/28 02:21:17;;;;;;;16.80;4.90;;;18.80;99.90;;;19.48;100.00;98159.16;5085112;28;20499;-83
2022/08/28 02:23:47;;;;;;;9.17;4.60;;;18.80;99.90;;;19.46;100.00;98155.94;5083579;28;20789;-83
2022/08/28 02:26:17;;;;;;;10.27;4.00;;;18.70;99.90;;;19.46;100.00;98155.94;5082999;28;20998;-85
2022/08/28 02:28:47;;;;;;;8.97;4.10;;;18.70;99.90;;;19.43;100.00;98151.13;5082820;28;20548;-83
2022/08/28 02:31:15;;;;;;;6.17;4.33;;;18.70;99.90;;;19.48;100.00;98155.69;5084786;28;20459;-83
2022/08/28 02:33:46;;;;;;;6.53;3.97;;;18.70;99.90;;;19.48;100.00;98156.50;5066207;28;20487;-83
2022/08/28 02:36:16;;;;;;;4.90;3.60;;;18.70;99.90;;;19.49;100.00;98160.75;5085753;28;20471;-84
2022/08/28 02:38:47;;;;;;;6.30;3.60;;;18.70;99.90;;;19.49;100.00;98152.00;5084486;28;20563;-83
2022/08/28 02:41:19;;;;;;;5.47;3.60;;;18.70;99.90;;;19.52;100.00;98154.16;5083228;28;20603;-83
2022/08/28 02:43:48;;;;;;;7.23;4.27;;;18.80;99.90;;;19.51;100.00;98152.56;5084296;28;20490;-84
2022/08/28 02:46:17;;;;;;;8.07;4.93;;;18.80;99.90;;;19.48;100.00;98148.53;5085109;28;20535;-83
2022/08/28 02:48:46;;;;;;;6.10;3.63;;;18.80;99.90;;;19.49;100.00;98149.34;5084164;28;20491;-84
2022/08/28 02:51:15;;;;;;;6.40;4.50;;;18.80;99.90;;;19.49;100.00;98144.03;5083453;28;20467;-83
2022/08/28 02:53:44;;;;;;;10.83;4.60;;;18.70;99.90;;;19.45;100.00;98137.59;5082504;28;20556;-84
2022/08/28 02:56:12;;;;;;;7.40;3.80;;;18.70;99.90;;;19.46;100.00;98145.34;5084893;28;20459;-84
2022/08/28 02:58:43;;;;;;;5.50;3.20;;;18.60;99.90;;;19.42;100.00;98138.91;5086910;28;20460;-83
2022/08/28 03:01:12;;;;;;;6.13;3.83;;;18.60;99.90;;;19.37;100.00;98141.44;5087099;28;20989;-84
2022/08/28 03:03:42;;;;;;;8.07;4.30;;;18.50;99.90;;;19.38;100.00;98140.38;5084559;28;20471;-83
2022/08/28 03:06:12;;;;;;;7.10;4.33;;;18.60;99.90;;;19.36;100.00;98136.38;5083919;28;20525;-83
2022/08/28 03:08:43;;;;;;;5.37;3.67;;;18.60;99.90;;;19.40;100.00;98138.28;5082502;28;20556;-83
2022/08/28 03:11:12;;;;;;;7.27;3.27;;;18.60;99.90;;;19.42;100.00;98140.75;5084491;28;20493;-83
2022/08/28 03:13:43;;;;;;;5.50;4.03;;;18.60;99.90;;;19.42;100.00;98140.75;5083337;28;20524;-83
2022/08/28 03:16:12;;;;;;;6.80;4.13;;;18.60;99.90;;;19.37;100.00;98130.81;5080655;28;20526;-83
2022/08/28 03:18:41;;;;;;;5.20;3.90;;;18.60;99.90;;;19.40;100.00;98138.28;5085052;28;20467;-83
2022/08/28 03:21:11;;;;;;;11.50;3.50;;;18.60;99.90;;;19.40;100.00;98140.94;5083982;28;20528;-83
2022/08/28 03:23:40;;;;;;;7.13;3.67;;;18.50;99.90;;;19.41;100.00;98139.94;5083058;28;20466;-83
2022/08/28 03:26:12;;;;;;;7.63;4.40;;;18.60;99.90;;;19.41;100.00;98131.97;5083609;28;20957;-83
2022/08/28 03:28:47;;;;;;;6.10;3.50;;;18.60;99.90;;;19.42;100.00;98132.78;5082410;28;20499;-83
2022/08/28 03:31:20;;;;;;;5.10;3.27;;;18.50;99.90;;;19.40;100.00;98135.63;5084677;28;21473;-83
2022/08/28 03:34:02;;;;;;;8.10;4.23;;;18.50;99.90;;;19.42;100.00;98128.28;5082818;28;20556;-84
2022/08/28 03:36:53;;;;;;;6.50;3.87;;;18.50;99.90;;;19.41;100.00;98141.78;5081889;28;20973;-84
2022/08/28 03:39:21;;;;;;;10.33;6.27;;;18.50;99.90;;;19.40;100.00;98138.28;5084099;28;20876;-89
2022/08/28 03:41:51;;;;;;;13.17;5.30;;;18.60;99.90;;;19.40;100.00;98132.22;5065308;28;20485;-84
2022/08/28 03:44:23;;;;;;;10.37;4.43;;;18.60;99.90;;;19.38;100.00;98135.09;5081726;28;20478;-84
2022/08/28 03:46:54;;;;;;;8.63;3.97;;;18.70;99.90;;;19.39;100.00;98138.53;5080270;28;20559;-84
2022/08/28 03:49:23;;;;;;;5.57;3.70;;;18.60;99.90;;;19.35;100.00;98142.72;5083745;28;20955;-84
2022/08/28 03:51:56;;;;;;;10.87;3.60;;;18.60;99.90;;;19.29;100.00;98144.50;5082520;28;20455;-85
2022/08/28 03:54:28;;;;;;;13.40;4.70;;;18.60;99.90;;;19.29;100.00;98136.53;5064750;28;20495;-85
2022/08/28 03:56:58;;;;;;;11.63;3.90;;;18.60;99.90;;;19.31;100.00;98141.59;5082544;28;20470;-84
2022/08/28 03:59:30;;;;;;;6.90;3.67;;;18.60;99.90;;;19.30;100.00;98148.72;5081947;28;20471;-84
2022/08/28 04:02:03;;;;;;;18.47;11.73;;;18.50;99.90;;;19.31;100.00;98139.75;5081918;28;20463;-84
2022/08/28 04:04:33;;;;;;;11.70;6.70;;;18.50;99.90;;;19.34;100.00;98141.91;5083142;28;20528;-85
2022/08/28 04:07:03;;;;;;;4.97;4.10;;;18.50;99.90;;;19.32;100.00;98151.16;5083179;28;20459;-83
2022/08/28 04:09:33;;;;;;;8.70;4.30;;;18.50;99.90;;;19.33;100.00;98145.59;5062689;28;20542;-84
2022/08/28 04:12:03;;;;;;;8.70;4.10;;;18.50;99.90;;;19.34;100.00;98149.88;5080074;28;20934;-84
2022/08/28 04:14:35;;;;;;;75.17;49.73;;;18.50;99.90;;;19.31;100.00;98149.53;5064948;28;20969;-90
2022/08/28 04:17:05;;;;;;;10.87;6.90;;;18.40;99.90;;;19.31;100.00;98158.31;5084648;28;20474;-84
2022/08/28 04:19:36;;;;;;;9.90;4.07;;;18.40;99.90;;;19.31;100.00;98160.97;5079857;28;20455;-84
2022/08/28 04:22:12;;;;;;;4.50;3.67;;;18.40;99.90;;;19.30;100.00;98156.69;5061923;28;20974;-84
2022/08/28 04:24:43;;;;;;;5.00;3.77;;;18.40;99.90;;;19.30;100.00;98161.22;5063757;28;20462;-86
2022/08/28 04:27:15;;;;;;;9.10;3.57;;;18.40;99.90;;;19.27;100.00;98162.47;5078231;28;20503;-84
2022/08/28 04:29:46;;;;;;;4.63;3.50;;;18.40;99.90;;;19.29;100.00;98172.84;5083684;28;20490;-84
2022/08/28 04:32:15;;;;;;;9.03;4.70;;;18.50;99.90;;;19.29;100.00;98165.72;5082432;28;20482;-87
2022/08/28 04:34:45;;;;;;;10.27;4.80;;;18.50;99.90;;;19.26;100.00;98176.00;5078841;28;20856;-80
2022/08/28 04:37:16;;;;;;;5.77;3.33;;;18.50;99.90;;;19.23;100.00;98171.16;5081788;28;20508;-80
2022/08/28 04:39:45;;;;;;;7.70;4.10;;;18.50;99.90;;;19.20;100.00;98167.13;5081254;28;20471;-79
2022/08/28 04:42:14;;;;;;;7.80;4.20;;;18.40;99.90;;;19.13;100.00;98170.97;5081022;28;20467;-79
2022/08/28 04:44:45;;;;;;;10.53;3.90;;;18.40;99.90;;;19.16;100.00;98168.63;5063637;28;20980;-79
2022/08/28 04:47:14;;;;;;;6.77;3.60;;;18.40;99.90;;;19.18;100.00;98169.22;5064844;28;20521;-79
2022/08/28 04:49:43;;;;;;;11.30;4.40;;;18.40;99.90;;;19.21;100.00;98168.75;5079466;28;20997;-79
2022/08/28 04:52:14;;;;;;;5.97;4.10;;;18.40;99.90;;;19.20;100.00;98172.44;5079075;28;20463;-85
2022/08/28 04:54:43;;;;;;;8.90;4.73;;;18.40;99.90;;;19.19;100.00;98176.16;5083981;28;21029;-79
2022/08/28 04:57:12;;;;;;;8.10;4.50;;;18.40;99.90;;;19.22;100.00;98177.50;5079939;28;20485;-79
2022/08/28 04:59:43;;;;;;;8.40;4.13;;;18.50;99.90;;;19.22;100.00;98177.50;5079237;28;21054;-79
2022/08/28 05:02:13;;;;;;;9.13;4.23;;;18.50;99.90;;;19.21;100.00;98178.53;5079722;28;20459;-76
2022/08/28 05:04:42;;;;;;;13.03;4.20;;;18.40;99.90;;;19.21;100.00;98179.34;5080672;28;20543;-77
2022/08/28 05:07:11;;;;;;;9.87;4.40;;;18.50;99.90;;;19.22;100.00;98186.28;5081235;28;20475;-77
2022/08/28 05:09:42;;;;;;;5.93;3.87;;;18.50;99.90;;;19.23;100.00;98187.84;5080323;28;21066;-77
2022/08/28 05:12:15;;;;;;;8.93;4.10;;;18.50;99.90;;;19.23;100.00;98187.84;5082461;28;20874;-77
2022/08/28 05:14:44;;;;;;;5.20;4.03;;;18.50;99.90;;;19.23;100.00;98197.69;5052696;28;20499;-77
2022/08/28 05:17:15;;;;;;;12.23;4.20;;;18.40;99.90;;;19.20;100.00;98193.66;5082750;28;20949;-77
2022/08/28 05:19:46;;;;;;;10.47;4.10;;;18.50;99.90;;;19.19;100.00;98200.00;5080940;28;20521;-76
2022/08/28 05:22:15;;;;;;;8.27;4.13;;;18.40;99.90;;;19.21;100.00;98195.25;5080494;28;20549;-77
2022/08/28 05:24:44;;;;;;;10.83;3.80;;;18.40;99.90;;;19.22;100.00;98196.06;5079925;28;20475;-76
2022/08/28 05:27:13;;;;;;;8.83;3.67;;;18.40;99.90;;;19.20;100.00;98204.25;5081419;28;20525;-77
2022/08/28 05:29:41;;;;;;;11.30;5.83;;;18.50;99.90;;;19.20;100.00;98201.59;5080700;28;20494;-78
2022/08/28 05:32:10;;;;;;;7.60;4.10;;;18.50;99.90;;;19.20;100.00;98200.78;5079198;28;20463;-77
2022/08/28 05:34:41;;;;;;;8.37;3.57;;;18.40;99.90;;;19.16;100.00;98200.47;5081477;28;20482;-77
2022/08/28 05:37:10;;;;;;;11.60;5.27;;;18.50;99.90;;;19.18;100.00;98205.53;5080510;28;20459;-77
2022/08/28 05:39:44;;;;;;;9.97;4.00;;;18.40;99.90;;;19.18;100.00;98203.69;5078458;28;20487;-77
2022/08/28 05:42:13;;;;;;;12.93;4.67;;;18.40;99.90;;;19.20;100.00;98203.44;5078901;28;20727;-77
2022/08/28 05:44:42;;;;;;;5.83;4.03;;;18.40;99.90;;;19.22;100.00;98202.19;5081030;28;20463;-77
2022/08/28 05:47:11;;;;;;;6.57;4.10;;;18.40;99.90;;;19.25;100.00;98212.31;5084589;28;20455;-77
2022/08/28 05:49:42;;;;;;;9.60;5.20;;;18.40;99.90;;;19.27;100.00;98215.50;5084096;28;20891;-84
2022/08/28 05:52:11;;;;;;;4.90;3.73;;;18.40;99.90;;;19.31;100.00;98215.84;5083002;28;20467;-77
2022/08/28 05:54:43;;;;;;;7.93;3.83;;;18.50;99.90;;;19.32;100.00;98212.97;5086555;28;20491;-77
2022/08/28 05:57:11;;;;;;;8.63;4.60;;;18.60;99.90;;;19.31;100.00;98214.00;5085673;28;20513;-77
2022/08/28 05:59:40;;;;;;;19.00;4.57;;;18.60;99.90;;;19.29;100.00;98213.44;5084811;28;20532;-77
2022/08/28 06:02:09;;;;;;;7.07;4.07;;;18.60;99.90;;;19.32;100.00;98220.91;5084063;28;20502;-77
2022/08/28 06:04:39;;;;;;;9.67;3.80;;;18.50;99.90;;;19.34;100.00;98216.16;5082087;28;20466;-77
2022/08/28 06:07:10;;;;;;;6.73;3.90;;;18.50;99.90;;;19.31;100.00;98221.16;5084170;28;20548;-78
2022/08/28 06:09:39;;;;;;;9.73;4.10;;;18.50;99.90;;;19.32;100.00;98218.28;5082637;28;20487;-78
2022/08/28 06:12:09;;;;;;;9.33;4.63;;;18.50;99.90;;;19.33;100.00;98224.38;5081555;28;20479;-78
2022/08/28 06:14:39;;;;;;;12.50;4.40;;;18.50;99.90;;;19.35;100.00;98223.09;5083793;28;20467;-77
2022/08/28 06:17:08;;;;;;;6.33;3.60;;;18.60;99.90;;;19.38;100.00;98224.47;5084275;28;20459;-77
2022/08/28 06:19:37;;;;;;;13.80;4.00;;;18.60;99.90;;;19.39;100.00;98226.88;5081106;28;20471;-77
2022/08/28 06:22:13;;;;;;;13.60;4.30;;;18.60;99.90;;;19.42;100.00;98229.09;5082661;28;20467;-78
2022/08/28 06:24:42;;;;;;;4.20;3.23;;;18.60;99.90;;;19.42;100.00;98234.41;5083295;28;20471;-77
2022/08/28 06:27:11;;;;;;;7.53;3.90;;;18.60;99.90;;;19.44;100.00;98232.28;5082392;28;20475;-77
2022/08/28 06:29:40;;;;;;;10.17;3.80;;;18.60;99.90;;;19.46;100.00;98234.72;5081216;28;20519;-77
2022/08/28 06:32:09;;;;;;;9.90;3.67;;;18.60;99.90;;;19.46;100.00;98237.38;5083111;28;20468;-78
2022/08/28 06:34:38;;;;;;;11.20;4.10;;;18.60;99.90;;;19.47;100.00;98234.47;5083582;28;20577;-77
2022/08/28 06:37:07;;;;;;;8.70;3.17;;;18.70;99.90;;;19.50;100.00;98239.31;5081992;28;20980;-77
2022/08/28 06:39:40;;;;;;;8.23;4.27;;;18.70;99.90;;;19.48;100.00;98237.94;5065474;28;21260;-78
2022/08/28 06:42:09;;;;;;;6.00;3.97;;;18.60;99.90;;;19.50;100.00;98244.63;5082756;28;20552;-76
2022/08/28 06:44:38;;;;;;;150.73;78.43;;;18.80;99.90;;;19.52;100.00;98244.38;5081515;28;20495;-78
2022/08/28 06:47:09;;;;;;;12.93;5.93;;;18.80;99.90;;;19.52;100.00;98245.19;5063004;28;20471;-77
2022/08/28 06:49:37;;;;;;;11.47;4.07;;;18.70;99.90;;;19.53;100.00;98248.63;5084088;28;20548;-77
2022/08/28 06:52:08;;;;;;;6.63;3.73;;;18.80;99.90;;;19.53;100.00;98252.09;5082050;28;20489;-77
2022/08/28 06:54:38;;;;;;;6.37;3.70;;;18.70;99.90;;;19.54;100.00;98259.00;5083402;28;20485;-77
2022/08/28 06:57:24;;;;;;;11.40;4.20;;;18.80;99.90;;;19.57;100.00;98253.25;5080912;28;20479;-77
2022/08/28 06:59:57;;;;;;;7.53;4.50;;;18.80;99.90;;;19.63;100.00;98250.66;5082550;28;20463;-77
2022/08/28 07:02:26;;;;;;;5.83;3.63;;;18.80;99.90;;;19.64;100.00;98245.13;5082504;28;20471;-76
2022/08/28 07:04:55;;;;;;;9.53;3.97;;;18.80;99.90;;;19.64;100.00;98241.66;5080723;28;21023;-76
2022/08/28 07:07:24;;;;;;;6.47;4.20;;;18.80;99.90;;;19.67;100.00;98247.28;5085378;28;20707;-77
2022/08/28 07:10:01;;;;;;;6.83;3.57;;;18.80;99.90;;;19.66;100.00;98250.16;5083054;28;20490;-76
2022/08/28 07:12:29;;;;;;;7.40;3.90;;;18.90;99.90;;;19.66;100.00;98260.78;5081721;28;20819;-78
2022/08/28 07:14:58;;;;;;;6.03;3.50;;;18.80;99.90;;;19.69;100.00;98262.97;5081752;28;20459;-76
2022/08/28 07:17:26;;;;;;;7.27;4.23;;;18.80;99.90;;;19.71;100.00;98269.66;5084923;28;20487;-77
2022/08/28 07:19:55;;;;;;;4.37;3.30;;;18.90;99.90;;;19.70;100.00;98270.69;5082619;28;20875;-77
2022/08/28 07:22:25;;;;;;;8.83;4.37;;;18.80;99.90;;;19.69;100.00;98265.59;5081676;28;20943;-77
2022/08/28 07:24:54;;;;;;;10.47;3.30;;;18.90;99.90;;;19.72;100.00;98275.75;5082642;28;20495;-76
2022/08/28 07:27:25;;;;;;;8.57;3.27;;;18.90;99.90;;;19.76;100.00;98269.72;5083132;28;20476;-83
2022/08/28 07:29:53;;;;;;;9.73;3.90;;;19.00;99.90;;;19.81;100.00;98261.84;5082025;28;20869;-77
2022/08/28 07:32:23;;;;;;;7.07;3.90;;;19.00;99.90;;;19.85;100.00;98267.50;5082227;28;20510;-77
2022/08/28 07:34:51;;;;;;;13.77;7.33;;;19.10;99.90;;;19.83;100.00;98272.22;5084072;28;21047;-78
2022/08/28 07:37:20;;;;;;;6.10;3.50;;;19.00;99.90;;;19.85;100.00;98272.81;5082221;28;20465;-77
2022/08/28 07:39:49;;;;;;;7.10;3.50;;;19.10;99.90;;;19.89;100.00;98265.94;5085346;28;20471;-77
2022/08/28 07:45:05;;;;;;;5.77;3.70;;;19.10;99.90;;;19.99;100.00;98279.41;5084509;28;20467;-77
2022/08/28 07:47:34;;;;;;;8.90;3.60;;;19.20;99.90;;;19.99;100.00;98276.75;5083778;28;20527;-77
2022/08/28 07:50:03;;;;;;;9.27;4.20;;;19.20;99.90;;;19.97;100.00;98269.00;5083700;28;20494;-76
2022/08/28 07:52:31;;;;;;;9.13;3.60;;;19.20;99.90;;;20.03;100.00;98277.84;5085391;28;20459;-77
2022/08/28 07:55:00;;;;;;;7.90;3.30;;;19.20;99.90;;;20.06;100.00;98280.81;5085695;28;20483;-77
2022/08/28 07:57:30;;;;;;;7.27;3.40;;;19.30;99.90;;;20.04;100.00;98279.47;5083334;28;20455;-77
2022/08/28 07:59:59;;;;;;;11.33;3.80;;;19.30;99.90;;;20.09;100.00;98282.22;5085374;28;20440;-77
2022/08/28 08:02:29;;;;;;;7.80;3.40;;;19.30;99.90;;;20.14;100.00;98290.25;5084901;28;20993;-77
2022/08/28 08:04:58;;;;;;;14.57;4.03;;;19.40;99.90;;;20.16;100.00;98282.06;5084207;28;20501;-77
2022/08/28 08:07:27;;;;;;;6.33;3.67;;;19.50;99.90;;;20.18;100.00;98286.06;5084954;28;20490;-77
2022/08/28 08:09:56;;;;;;;13.17;3.53;;;19.60;99.90;;;20.20;100.00;98283.97;5082449;28;20497;-77
2022/08/28 08:12:25;;;;;;;5.70;3.50;;;19.60;99.90;;;20.22;100.00;98281.06;5082810;28;20609;-77
2022/08/28 08:14:56;;;;;;;6.00;3.43;;;19.50;99.90;;;20.25;100.00;98281.41;5083150;28;20452;-77
2022/08/28 08:17:25;;;;;;;7.53;3.90;;;19.60;99.90;;;20.31;100.00;98284.94;5084510;28;20451;-77
2022/08/28 08:19:55;;;;;;;4.33;2.83;;;19.60;99.90;;;20.32;100.00;98287.38;5083960;28;21052;-76
2022/08/28 08:22:24;;;;;;;9.50;3.47;;;19.60;99.90;;;20.40;100.00;98284.31;5083604;28;20957;-77
2022/08/28 08:24:53;;;;;;;9.50;3.70;;;19.80;99.90;;;20.49;100.00;98280.19;5084772;28;20524;-77
2022/08/28 08:27:22;;;;;;;4.30;2.93;;;19.90;99.90;;;20.56;100.00;98277.34;5085124;28;20545;-77
2022/08/28 08:29:50;;;;;;;5.17;2.57;;;20.00;99.90;;;20.59;100.00;98280.31;5082064;28;20977;-77
2022/08/28 08:32:19;;;;;;;11.13;2.83;;;19.90;99.90;;;20.66;100.00;98287.31;5083985;28;20561;-77
2022/08/28 08:34:48;;;;;;;6.37;3.30;;;20.10;99.90;;;20.70;100.00;98283.09;5085933;28;20440;-77
2022/08/28 08:37:18;;;;;;;6.70;3.33;;;20.10;99.90;;;20.72;100.00;98281.81;5084863;28;20443;-77
2022/08/28 08:39:46;;;;;;;4.10;2.43;;;20.10;99.90;;;20.80;100.00;98291.22;5079487;28;20471;-77
2022/08/28 08:42:25;;;;;;;7.70;2.90;;;20.10;99.90;;;20.85;100.00;98292.09;5084167;28;20475;-77
2022/08/28 08:44:59;;;;;;;6.07;3.23;;;20.20;99.90;;;20.92;100.00;98290.06;5083660;28;20491;-77
2022/08/28 08:47:38;;;;;;;8.47;3.33;;;20.30;99.60;;;20.96;100.00;98285.84;5084499;28;20436;-78
2022/08/28 08:50:15;;;;;;;6.87;2.80;;;20.30;99.50;;;21.00;100.00;98288.81;5083003;28;20447;-77
2022/08/28 08:53:04;;;;;;;19.80;2.83;;;20.30;99.40;;;21.00;100.00;98291.47;5082943;28;20540;-77
2022/08/28 08:55:42;;;;;;;7.63;3.03;;;20.30;99.10;;;20.96;99.64;98283.19;5082439;28;20505;-78
2022/08/28 08:58:21;;;;;;;7.33;3.70;;;20.30;99.00;;;21.00;99.21;98288.81;5083610;28;20471;-78
2022/08/28 09:01:01;;;;;;;4.67;3.10;;;20.30;99.00;;;21.00;97.95;98294.13;5083961;28;20508;-77
2022/08/28 09:03:57;;;;;;;10.00;3.20;;;20.30;98.60;;;21.05;96.89;98280.91;5083747;28;20455;-77
2022/08/28 09:06:36;;;;;;;7.73;2.73;;;20.40;98.40;;;21.12;97.11;98286.06;5080829;28;20895;-77
2022/08/28 09:09:18;;;;;;;10.70;3.40;;;20.40;98.70;;;21.18;96.16;98285.88;5083890;28;20447;-77
2022/08/28 09:11:57;;;;;;;3.40;2.63;;;20.50;98.40;;;21.25;97.06;98285.66;5083837;28;20495;-77
2022/08/28 09:14:41;;;;;;;9.50;3.00;;;20.60;98.50;;;21.30;97.11;98289.22;5082629;28;20518;-78
2022/08/28 09:17:16;;;;;;;5.17;2.87;;;20.70;98.50;;;21.36;97.17;98287.38;5083021;28;20502;-77
2022/08/28 09:19:45;;;;;;;5.60;2.80;;;20.70;98.60;;;21.40;96.74;98276.00;5083669;28;20472;-77
2022/08/28 09:22:13;;;;;;;3.53;2.70;;;20.80;98.60;;;21.43;97.25;98283.47;5084839;28;20819;-77
2022/08/28 09:24:44;;;;;;;5.00;2.93;;;20.80;98.60;;;21.43;95.24;98294.13;5086313;28;20459;-77
2022/08/28 09:27:25;;;;;;;11.80;3.57;;;20.80;98.40;;;21.44;94.89;98298.41;5088559;28;20462;-77
2022/08/28 09:30:00;;;;;;;7.10;2.60;;;20.80;98.00;;;21.44;94.42;98311.72;5086280;28;20460;-77
2022/08/28 09:32:40;;;;;;;13.37;3.23;;;20.80;98.00;;;21.50;92.82;98310.72;5085012;28;20526;-77
2022/08/28 09:35:17;;;;;;;11.00;2.57;;;20.90;97.80;;;21.47;93.07;98294.44;5088288;28;20467;-77
2022/08/28 09:37:46;;;;;;;8.77;3.07;;;20.80;97.70;;;21.54;93.30;98313.66;5085518;28;20525;-77
2022/08/28 09:40:22;;;;;;;4.33;2.90;;;20.90;97.80;;;21.56;93.72;98304.38;5084584;28;20475;-77
2022/08/28 09:46:16;;;;;;;8.83;3.30;;;20.90;97.70;;;21.68;92.99;98312.22;5017688;28;20477;-78
2022/08/28 09:48:47;;;;;;;7.53;2.73;;;21.00;97.70;;;21.78;93.09;98301.66;5017910;28;20493;-78
2022/08/28 09:51:30;;;;;;;5.43;3.67;;;21.10;97.90;;;21.86;93.03;98295.06;5057539;28;20531;-78
2022/08/28 09:54:11;;;;;;;6.07;2.80;;;21.20;97.90;;;21.91;90.42;98297.78;5087379;28;20432;-77
2022/08/28 09:56:44;;;;;;;4.57;2.40;;;21.30;97.30;;;21.95;90.91;98296.25;5084714;28;20495;-77
2022/08/28 09:59:16;;;;;;;5.90;3.10;;;21.40;97.30;;;22.05;91.31;98296.31;5088191;28;20957;-77
2022/08/28 10:02:09;;;;;;;5.03;3.30;;;21.50;97.50;;;22.10;90.73;98299.03;5086034;28;20452;-77
2022/08/28 10:04:57;;;;;;;6.67;2.83;;;21.50;97.40;;;22.09;90.14;98302.75;5080021;28;20939;-78
2022/08/28 10:07:45;;;;;;;5.00;2.47;;;21.50;97.20;;;22.08;90.37;98306.47;5084335;28;20503;-77
2022/08/28 10:10:26;;;;;;;7.40;3.00;;;21.30;97.20;;;22.06;90.34;98298.75;5084523;28;21445;-77
2022/08/28 10:13:09;;;;;;;9.47;2.87;;;21.40;97.30;;;22.11;89.51;98300.63;5084032;28;20479;-77
2022/08/28 10:16:03;;;;;;;9.20;3.07;;;21.50;97.10;;;22.15;88.78;98296.41;5082030;28;20462;-77
2022/08/28 10:18:42;;;;;;;3.60;2.37;;;21.50;97.00;;;22.20;88.87;98288.47;5082683;28;20478;-77
2022/08/28 10:21:20;;;;;;;6.37;3.00;;;21.50;96.90;;;22.29;89.18;98300.22;5085601;28;20499;-78
2022/08/28 10:24:21;;;;;;;5.20;3.50;;;21.60;97.10;;;22.33;89.06;98288.00;5084624;28;20494;-77
2022/08/28 10:27:11;;;;;;;6.47;3.07;;;21.70;97.00;;;22.39;88.48;98292.31;5084484;28;20544;-77
2022/08/28 10:29:58;;;;;;;5.63;3.23;;;21.70;97.00;;;22.41;87.47;98294.72;5082679;28;20467;-78
2022/08/28 10:33:04;;;;;;;6.00;2.60;;;21.70;96.70;;;22.42;86.45;98291.78;5082982;28;21013;-77
2022/08/28 10:35:49;;;;;;;11.50;3.50;;;21.70;96.30;;;22.42;86.22;98297.13;5080639;28;20458;-78
2022/08/28 10:38:28;;;;;;;7.67;3.40;;;21.70;96.30;;;22.43;86.33;98285.41;5083774;28;20473;-77
2022/08/28 10:41:05;;;;;;;5.33;2.60;;;21.70;96.60;;;22.47;86.16;98283.84;5081923;28;20811;-77
2022/08/28 10:43:42;;;;;;;13.70;2.67;;;21.70;96.40;;;22.54;86.48;98283.59;5086100;28;21013;-77